Impacts TAF Board INFO
FOR SITUATIONAL AWARENESS. NOT TO BE USED FOR FLIGHT PLANNING PURPOSES.
IDs:

KCLE - Cleveland/Hopkins In, OH, US

Issued at 2044 UTC 24 Feb 2018
Updated at 2205 UTC 24 Feb 2018
Potential Impact None Slight Moderate High
Time2151Z 24/23Z 25/00Z 25/01Z 25/02Z 25/03Z 25/04Z 25/05Z 25/06Z 25/07Z 25/08Z 25/09Z 25/10Z 25/11Z>>
Type OBS PRVL
  [TEMP]  
PRVL
  [TEMP]  
PRVL PRVL PRVL PRVL PRVL PRVL PRVL PRVL PRVL PRVL PRVL
VIS 10 6 6 6 6 6 3 3 3 3 3 4 4 4
CIG 10 10
  [9]  
10
  [9]  
10 10 10 10 10 10 10 10 12 12 12
Cover OVC OVC
  [BKN]  
OVC
  [BKN]  
OVC OVC OVC OVC OVC OVC OVC OVC OVC OVC OVC
FltCat MVFR MVFR
  [IFR]  
MVFR
  [IFR]  
MVFR MVFR MVFR MVFR MVFR MVFR MVFR MVFR MVFR MVFR MVFR
WX -- BR
  [--]  
BR
  [--]  
BR BR BR -RA BR -RA BR -RA BR -RA BR -RA BR -SHRA BR -SHRA BR -SHRA BR
WDir 30 40
[40]
40
[40]
40 40 40 110 110 110 110 110 180 180 180
WSpd 7 10
  [10]  
10
  [10]  
10 10 10 10 10 10 10 10 14 14 14
WGst -- --
  [--]  
--
  [--]  
-- -- -- -- -- -- -- -- 22 22 22

Raw TAF
KCLE 242044Z 2421/2524 04010KT 6SM BR BKN010 OVC050
  TEMPO 2421/2501 BKN009
  FM250400 11010KT 3SM -RA BR BKN010 OVC035
  FM250900 18014G22KT 4SM -SHRA BR BKN012 OVC035
  FM251300 23020G30KT 6SM -SHRA BR SCT010 OVC025
  FM251600 25018G28KT P6SM SCT035


Raw METAR
KCLE 242151Z 03007KT 10SM OVC010 04/02 A3008 RMK AO2 SLP191 T00440022 $
KCLE 242051Z 05007KT 10SM OVC010 05/03 A3009 RMK AO2 SLP193 60000 T00500028 58028 $
KCLE 241951Z 02011KT 10SM SCT007 OVC010 04/02 A3013 RMK AO2 SLP207 T00390017 $

METAR Board
Radar Display
Forecast Discussion

FOR SITUATIONAL AWARENESS. NOT TO BE USED FOR FLIGHT PLANNING PURPOSES.